SKBQ

Ernesto Cortissoz International Airport

Barranquilla, Colombia
METAR SKBQ 180200Z 36009KT 9999 SCT015 27/27 A2989
Observed Flight Rules
Aug-18 @ 02:00 UTC (30 minutes ago) Visual Flight Rules
Wind Visibility Clouds
360° at 9 knots 10,000+ meters
  • Scattered at 1,500' AGL
Temperatures Readings
Current 27°C / 81°F
Dewpoint 27°C / 81°F
Humidity 100%
Altimeter 29.89" Hg
Pressure 1012 hPa
Elevation 10
METAR SKBQ 180200Z 36009KT 9999 SCT015 27/27 A2989
Observed Flight Rules
Aug-18 @ 02:00 UTC
(30 minutes ago)
VFR
Wind Visibility
360° at 9 knots 10,000+ meters
Clouds
  • Scattered at 1,500' AGL
Temperature Dewpoint
27°C / 81°F 27°C / 81°F
Humidity Altimeter Pressure
100% 29.89" Hg 1012 hPa